createdAt,value
2022-12-01T00:02:06.438Z,17.83
2022-12-01T00:05:08.781Z,17.23
2022-12-01T00:08:11.002Z,19.53
2022-12-01T00:11:13.212Z,20.50
2022-12-01T00:14:16.717Z,18.10
2022-12-01T00:17:19.007Z,19.60
2022-12-01T00:20:21.269Z,24.52
2022-12-01T00:23:23.673Z,21.77
2022-12-01T00:26:26.476Z,18.83
2022-12-01T00:29:28.711Z,18.25
2022-12-01T00:32:31.504Z,20.90
2022-12-01T00:35:33.677Z,20.33
2022-12-01T00:38:36.183Z,21.70
2022-12-01T00:41:38.407Z,20.90
2022-12-01T00:44:40.973Z,20.48
2022-12-01T00:47:43.501Z,18.10
2022-12-01T00:50:46.093Z,16.45
2022-12-01T00:53:48.320Z,18.40
2022-12-01T00:56:51.125Z,23.40
2022-12-01T00:59:53.400Z,20.08
2022-12-01T01:02:55.650Z,22.10
2022-12-01T01:06:03.192Z,22.15
2022-12-01T01:09:05.632Z,22.53
2022-12-01T01:12:07.854Z,20.90
2022-12-01T01:15:10.419Z,16.33
2022-12-01T01:18:12.988Z,22.77
2022-12-01T01:21:17.462Z,22.40
2022-12-01T01:24:20.359Z,22.43
2022-12-01T01:27:22.553Z,24.17
2022-12-01T01:30:25.146Z,20.83
2022-12-01T01:33:27.422Z,22.73
2022-12-01T01:36:29.637Z,21.30
2022-12-01T01:39:32.179Z,22.07
2022-12-01T01:42:34.659Z,23.63
2022-12-01T01:45:37.169Z,21.92
2022-12-01T01:48:40.664Z,24.35
2022-12-01T01:51:43.145Z,20.75
2022-12-01T01:54:47.878Z,20.93
2022-12-01T01:57:50.105Z,24.90
2022-12-01T02:00:52.351Z,21.52
2022-12-01T02:03:55.161Z,20.67
2022-12-01T02:06:57.500Z,23.42
2022-12-01T02:09:59.696Z,22.83
2022-12-01T02:13:20.949Z,21.30
2022-12-01T02:16:23.141Z,26.83
2022-12-01T02:19:44.245Z,24.15
2022-12-01T02:23:08.520Z,24.98
2022-12-01T02:26:10.908Z,24.70
2022-12-01T02:29:32.254Z,19.70
2022-12-01T02:32:39.849Z,19.77
2022-12-01T02:35:51.271Z,20.35
2022-12-01T02:38:59.175Z,18.27
2022-12-01T02:42:08.008Z,21.53
2022-12-01T02:45:12.585Z,19.77
2022-12-01T02:48:18.199Z,18.98
2022-12-01T02:51:25.277Z,18.38
2022-12-01T02:54:28.998Z,20.65
2022-12-01T02:57:31.292Z,19.17
2022-12-01T03:00:33.546Z,19.90
2022-12-01T03:03:36.092Z,19.70
2022-12-01T03:06:38.256Z,20.83
2022-12-01T03:09:59.335Z,23.17
2022-12-01T03:13:08.012Z,22.07
2022-12-01T03:16:13.726Z,19.57
2022-12-01T03:19:15.936Z,21.13
2022-12-01T03:22:28.565Z,21.17
2022-12-01T03:25:31.596Z,22.40
2022-12-01T03:28:36.869Z,17.17
2022-12-01T03:31:42.872Z,21.50
2022-12-01T03:34:51.545Z,22.75
2022-12-01T03:37:57.136Z,20.90
2022-12-01T03:41:06.685Z,23.25
2022-12-01T03:44:11.147Z,21.47
2022-12-01T03:47:15.790Z,19.97
2022-12-01T03:50:18.761Z,18.83
2022-12-01T03:53:30.824Z,19.77
2022-12-01T03:57:02.925Z,20.27
2022-12-01T04:00:06.928Z,21.80
2022-12-01T04:03:18.871Z,21.53
2022-12-01T04:06:21.223Z,21.23
2022-12-01T04:09:23.551Z,22.48
2022-12-01T04:12:33.048Z,23.42
2022-12-01T04:15:35.542Z,22.23
2022-12-01T04:18:37.909Z,18.60
2022-12-01T04:21:40.160Z,20.20
2022-12-01T04:24:42.621Z,22.63
2022-12-01T04:27:44.792Z,17.63
2022-12-01T04:30:47.564Z,22.93
2022-12-01T04:33:49.829Z,19.03
2022-12-01T04:36:52.025Z,22.73
2022-12-01T04:39:54.226Z,22.92
2022-12-01T04:42:56.447Z,27.15
2022-12-01T04:45:58.901Z,24.67
2022-12-01T04:49:01.349Z,21.77
2022-12-01T04:52:03.650Z,23.33
2022-12-01T04:55:06.258Z,18.00
2022-12-01T04:58:08.761Z,22.83
2022-12-01T05:01:12.734Z,24.03
2022-12-01T05:04:15.886Z,23.10
2022-12-01T05:07:18.632Z,21.25
2022-12-01T05:10:21.297Z,21.70
2022-12-01T05:13:23.846Z,21.88
2022-12-01T05:16:27.245Z,21.93
2022-12-01T05:19:48.333Z,24.43
2022-12-01T05:23:10.765Z,25.27
2022-12-01T05:26:14.889Z,24.67
2022-12-01T05:29:17.146Z,25.65
2022-12-01T05:32:19.294Z,23.93
2022-12-01T05:35:21.576Z,28.00
2022-12-01T05:38:24.199Z,27.90
2022-12-01T05:41:26.876Z,22.67
2022-12-01T05:44:29.118Z,23.00
2022-12-01T05:47:31.371Z,24.83
2022-12-01T05:50:33.662Z,27.03
2022-12-01T05:53:36.997Z,28.58
2022-12-01T05:56:42.963Z,25.27
2022-12-01T05:59:47.428Z,25.52
2022-12-01T06:02:49.980Z,25.90
2022-12-01T06:05:52.174Z,25.80
2022-12-01T06:08:54.624Z,29.55
2022-12-01T06:11:56.810Z,26.13
2022-12-01T06:14:59.159Z,31.52
2022-12-01T06:18:01.941Z,28.87
2022-12-01T06:21:05.760Z,29.13
2022-12-01T06:24:08.529Z,33.90
2022-12-01T06:27:10.809Z,33.17
2022-12-01T06:30:13.386Z,30.95
2022-12-01T06:33:15.661Z,31.10
2022-12-01T06:36:18.103Z,39.20
2022-12-01T06:39:20.982Z,31.58
2022-12-01T06:42:23.258Z,37.03
2022-12-01T06:45:30.545Z,39.55
2022-12-01T06:48:38.611Z,33.13
2022-12-01T06:51:43.433Z,36.67
2022-12-01T06:54:46.541Z,36.22
2022-12-01T06:57:49.127Z,33.80
2022-12-01T07:00:52.791Z,40.50
2022-12-01T07:03:56.029Z,35.50
2022-12-01T07:06:58.746Z,39.40
2022-12-01T07:10:02.999Z,37.92
2022-12-01T07:13:05.980Z,32.53
2022-12-01T07:16:09.726Z,37.80
2022-12-01T07:19:11.998Z,35.97
2022-12-01T07:22:16.030Z,38.90
2022-12-01T07:25:18.536Z,33.90
2022-12-01T07:28:21.499Z,36.22
2022-12-01T07:31:26.380Z,37.90
2022-12-01T07:34:29.397Z,41.57
2022-12-01T07:37:31.918Z,38.70
2022-12-01T07:40:37.554Z,43.10
2022-12-01T07:43:44.721Z,38.33
2022-12-01T07:47:01.101Z,40.03
2022-12-01T07:50:08.110Z,43.97
2022-12-01T07:53:13.282Z,38.33
2022-12-01T07:56:23.358Z,39.45
2022-12-01T07:59:32.133Z,39.28
2022-12-01T08:03:01.931Z,39.55
2022-12-01T08:06:05.402Z,35.67
2022-12-01T08:09:09.998Z,37.50
2022-12-01T08:12:13.354Z,44.45
2022-12-01T08:15:16.421Z,41.38
2022-12-01T08:18:19.065Z,46.92
2022-12-01T08:21:22.392Z,55.80
2022-12-01T08:24:25.721Z,42.50
2022-12-01T08:27:27.986Z,43.80
2022-12-01T08:30:30.496Z,52.45
2022-12-01T08:33:33.169Z,69.60
2022-12-01T08:36:35.857Z,56.90
2022-12-01T08:39:38.174Z,45.13
2022-12-01T08:42:40.779Z,51.88
2022-12-01T08:45:43.014Z,51.17
2022-12-01T08:48:55.240Z,47.85
2022-12-01T08:52:19.784Z,47.73
2022-12-01T08:55:22.969Z,38.27
2022-12-01T08:58:29.194Z,43.60
2022-12-01T09:01:34.153Z,35.33
2022-12-01T09:04:36.450Z,38.90
2022-12-01T09:07:38.769Z,35.17
2022-12-01T09:10:41.331Z,32.20
2022-12-01T09:13:52.990Z,37.47
2022-12-01T09:16:57.253Z,34.78
2022-12-01T09:20:03.503Z,34.45
2022-12-01T09:23:07.387Z,34.10
2022-12-01T09:26:13.927Z,30.57
2022-12-01T09:29:17.491Z,28.73
2022-12-01T09:32:20.344Z,24.40
2022-12-01T09:35:23.977Z,22.50
2022-12-01T09:38:28.677Z,25.30
2022-12-01T09:41:33.552Z,27.00
2022-12-01T09:44:52.972Z,23.55
2022-12-01T09:48:00.626Z,18.27
2022-12-01T09:51:11.401Z,16.63
2022-12-01T09:54:18.327Z,17.23
2022-12-01T09:57:23.177Z,17.50
2022-12-01T10:00:32.303Z,17.85
2022-12-01T10:03:41.149Z,18.40
2022-12-01T10:06:48.569Z,18.17
2022-12-01T10:09:56.238Z,13.70
2022-12-01T10:13:01.642Z,16.17
2022-12-01T10:16:10.111Z,13.25
2022-12-01T10:19:18.208Z,14.45
2022-12-01T10:22:30.456Z,15.00
2022-12-01T10:25:43.678Z,13.10
2022-12-01T10:28:48.832Z,13.20
2022-12-01T10:32:18.581Z,12.25
2022-12-01T10:35:25.913Z,11.60
2022-12-01T10:38:31.492Z,10.18
2022-12-01T10:41:38.157Z,10.82
2022-12-01T10:44:42.655Z,11.47
2022-12-01T10:48:10.485Z,13.90
2022-12-01T10:51:50.505Z,9.00
2022-12-01T10:55:23.607Z,9.05
2022-12-01T10:58:27.618Z,8.90
2022-12-01T11:01:32.316Z,9.83
2022-12-01T11:04:36.808Z,11.20
2022-12-01T11:07:46.771Z,11.20
2022-12-01T11:10:49.825Z,9.00
2022-12-01T11:13:54.151Z,7.65
2022-12-01T11:16:56.517Z,10.37
2022-12-01T11:19:59.527Z,12.57
2022-12-01T11:23:27.136Z,11.02
2022-12-01T11:26:34.507Z,9.25
2022-12-01T11:29:38.301Z,11.70
2022-12-01T11:32:50.827Z,10.33
2022-12-01T11:35:54.378Z,10.30
2022-12-01T11:42:36.503Z,12.95
2022-12-01T11:45:40.479Z,11.75
2022-12-01T11:48:57.329Z,10.37
2022-12-01T11:52:16.559Z,10.82
2022-12-01T11:55:21.967Z,10.95
2022-12-01T11:58:25.470Z,12.18
2022-12-01T12:01:47.533Z,11.38
2022-12-01T12:05:08.622Z,11.10
2022-12-01T12:08:19.880Z,9.80
2022-12-01T12:11:34.418Z,9.88
2022-12-01T12:14:49.027Z,9.77
2022-12-01T12:18:02.664Z,10.57
2022-12-01T12:21:10.430Z,9.10
2022-12-01T12:24:27.566Z,11.93
2022-12-01T12:27:52.890Z,11.45
2022-12-01T12:31:12.948Z,12.10
2022-12-01T12:34:26.631Z,12.20
2022-12-01T12:37:46.093Z,11.27
2022-12-01T12:41:02.861Z,13.25
2022-12-01T12:44:35.388Z,11.88
2022-12-01T12:48:03.080Z,10.23
2022-12-01T12:51:31.607Z,13.10
2022-12-01T12:54:49.562Z,11.20
2022-12-01T12:58:10.880Z,12.35
2022-12-01T13:01:23.897Z,12.70
2022-12-01T13:04:32.174Z,14.13
2022-12-01T13:07:48.641Z,16.63
2022-12-01T13:10:52.093Z,12.13
2022-12-01T13:14:06.994Z,13.63
2022-12-01T13:17:39.307Z,14.32
2022-12-01T13:20:42.158Z,13.95
2022-12-01T13:23:46.286Z,10.02
2022-12-01T13:26:55.625Z,11.23
2022-12-01T13:29:59.486Z,12.07
2022-12-01T13:33:06.622Z,12.32
2022-12-01T13:39:37.227Z,10.52
2022-12-01T13:42:40.779Z,11.87
2022-12-01T13:45:43.901Z,12.18
2022-12-01T13:48:46.896Z,12.98
2022-12-01T13:52:08.839Z,14.55
2022-12-01T13:55:11.778Z,12.13
2022-12-01T13:58:14.811Z,15.50
2022-12-01T14:01:25.495Z,15.63
2022-12-01T14:04:30.321Z,15.05
2022-12-01T14:07:35.365Z,13.55
2022-12-01T14:10:38.418Z,12.63
2022-12-01T14:13:46.999Z,14.50
2022-12-01T14:16:55.693Z,16.33
2022-12-01T14:20:18.653Z,14.27
2022-12-01T14:23:33.520Z,15.43
2022-12-01T14:26:44.921Z,15.13
2022-12-01T14:29:48.327Z,13.67
2022-12-01T14:32:51.132Z,14.10
2022-12-01T14:35:53.680Z,16.23
2022-12-01T14:38:59.036Z,16.33
2022-12-01T14:42:47.502Z,15.98
2022-12-01T14:45:55.038Z,14.87
2022-12-01T14:48:58.827Z,16.20
2022-12-01T14:52:04.844Z,15.45
2022-12-01T14:55:15.078Z,19.30
2022-12-01T14:58:20.122Z,18.88
2022-12-01T15:01:23.651Z,22.60
2022-12-01T15:04:26.512Z,21.77
2022-12-01T15:07:30.049Z,19.65
2022-12-01T15:10:37.237Z,17.67
2022-12-01T15:13:50.546Z,23.15
2022-12-01T15:16:55.325Z,18.83
2022-12-01T15:19:58.600Z,18.70
2022-12-01T15:23:01.990Z,23.60
2022-12-01T15:26:04.394Z,20.60
2022-12-01T15:29:06.996Z,20.13
2022-12-01T15:32:12.662Z,19.07
2022-12-01T15:35:19.005Z,22.17
2022-12-01T15:38:24.478Z,24.23
2022-12-01T15:41:29.778Z,26.73
2022-12-01T15:44:34.168Z,26.13
2022-12-01T15:48:05.971Z,21.00
2022-12-01T15:51:11.414Z,22.38
2022-12-01T15:54:24.599Z,25.88
2022-12-01T15:57:26.923Z,24.25
2022-12-01T16:00:29.237Z,21.83
2022-12-01T16:03:31.872Z,23.57
2022-12-01T16:06:35.624Z,28.35
2022-12-01T16:09:54.937Z,29.73
2022-12-01T16:13:16.161Z,37.20
2022-12-01T16:16:30.917Z,35.20
2022-12-01T16:19:34.051Z,36.37
2022-12-01T16:22:36.860Z,37.92
2022-12-01T16:25:39.834Z,37.70
2022-12-01T16:28:42.390Z,36.95
2022-12-01T16:32:12.708Z,35.53
2022-12-01T16:35:20.689Z,35.97
2022-12-01T16:38:23.900Z,38.10
2022-12-01T16:41:37.938Z,37.42
2022-12-01T16:44:41.886Z,34.97
2022-12-01T16:47:46.798Z,38.13
2022-12-01T16:50:49.775Z,32.13
2022-12-01T16:53:52.061Z,29.42
2022-12-01T16:56:54.367Z,42.17
2022-12-01T16:59:56.639Z,41.67
2022-12-01T17:02:59.442Z,39.25
2022-12-01T17:06:02.454Z,36.00
2022-12-01T17:09:05.114Z,43.67
2022-12-01T17:12:07.455Z,41.88
2022-12-01T17:15:10.839Z,41.85
2022-12-01T17:18:13.854Z,39.93
2022-12-01T17:21:16.138Z,43.13
2022-12-01T17:24:19.316Z,45.88
2022-12-01T17:27:22.679Z,45.97
2022-12-01T17:30:25.224Z,49.97
2022-12-01T17:33:27.573Z,55.43
2022-12-01T17:36:29.776Z,56.00
2022-12-01T17:39:31.996Z,57.80
2022-12-01T17:42:34.609Z,49.75
2022-12-01T17:45:42.042Z,56.50
2022-12-01T17:48:45.512Z,56.07
2022-12-01T17:51:47.781Z,56.37
2022-12-01T17:54:50.325Z,50.40
2022-12-01T17:57:52.984Z,48.08
2022-12-01T18:00:55.209Z,52.55
2022-12-01T18:03:58.288Z,51.77
2022-12-01T18:07:00.687Z,50.63
2022-12-01T18:10:03.089Z,51.88
2022-12-01T18:13:05.608Z,50.28
2022-12-01T18:16:09.220Z,51.92
2022-12-01T18:19:11.793Z,52.43
2022-12-01T18:22:14.285Z,53.90
2022-12-01T18:25:16.577Z,56.47
2022-12-01T18:28:18.988Z,51.03
2022-12-01T18:31:21.350Z,48.30
2022-12-01T18:34:23.900Z,47.97
2022-12-01T18:37:26.722Z,47.97
2022-12-01T18:40:29.096Z,47.33
2022-12-01T18:43:32.155Z,47.92
2022-12-01T18:46:34.847Z,51.22
2022-12-01T18:49:37.129Z,53.17
2022-12-01T18:52:39.415Z,50.03
2022-12-01T18:55:42.065Z,50.10
2022-12-01T18:58:44.535Z,48.40
2022-12-01T19:01:48.617Z,54.17
2022-12-01T19:04:53.229Z,46.47
2022-12-01T19:07:56.045Z,44.37
2022-12-01T19:11:03.051Z,54.67
2022-12-01T19:14:05.404Z,51.70
2022-12-01T19:17:08.549Z,50.78
2022-12-01T19:20:11.078Z,50.30
2022-12-01T19:23:13.642Z,54.50
2022-12-01T19:26:17.758Z,53.88
2022-12-01T19:29:20.156Z,60.10
2022-12-01T19:32:23.026Z,53.75
2022-12-01T19:35:25.450Z,61.47
2022-12-01T19:38:28.003Z,59.80
2022-12-01T19:41:31.234Z,60.20
2022-12-01T19:44:34.199Z,56.78
2022-12-01T19:47:37.177Z,56.42
2022-12-01T19:50:39.580Z,52.40
2022-12-01T19:53:42.113Z,56.03
2022-12-01T19:56:45.205Z,53.38
2022-12-01T19:59:47.653Z,48.33
2022-12-01T20:02:50.107Z,45.92
2022-12-01T20:05:52.797Z,45.33
2022-12-01T20:08:56.119Z,47.17
2022-12-01T20:11:58.581Z,46.38
2022-12-01T20:15:00.950Z,47.85
2022-12-01T20:18:03.361Z,47.95
2022-12-01T20:21:17.396Z,47.73
2022-12-01T20:24:21.725Z,44.87
2022-12-01T20:27:24.378Z,41.95
2022-12-01T20:30:26.795Z,40.55
2022-12-01T20:33:29.646Z,42.47
2022-12-01T20:36:32.136Z,39.27
2022-12-01T20:39:37.264Z,38.87
2022-12-01T20:42:39.823Z,36.00
2022-12-01T20:45:42.385Z,41.67
2022-12-01T20:48:44.816Z,38.03
2022-12-01T20:51:47.197Z,35.00
2022-12-01T20:54:49.739Z,36.77
2022-12-01T20:57:52.256Z,38.63
2022-12-01T21:00:54.988Z,39.75
2022-12-01T21:03:57.665Z,32.33
2022-12-01T21:07:00.347Z,32.43
2022-12-01T21:10:03.121Z,35.60
2022-12-01T21:13:44.062Z,38.10
2022-12-01T21:16:49.415Z,38.58
2022-12-01T21:20:18.083Z,38.42
2022-12-01T21:23:20.382Z,39.37
2022-12-01T21:26:22.850Z,39.33
2022-12-01T21:29:26.519Z,35.90
2022-12-01T21:32:33.523Z,33.35
2022-12-01T21:35:35.941Z,37.83
2022-12-01T21:38:38.158Z,32.33
2022-12-01T21:41:40.402Z,35.87
2022-12-01T21:44:42.823Z,35.65
2022-12-01T21:47:45.219Z,35.92
2022-12-01T21:50:52.385Z,36.78
2022-12-01T21:53:56.542Z,42.07
2022-12-01T21:56:59.229Z,38.90
2022-12-01T22:00:20.057Z,38.92
2022-12-01T22:03:27.213Z,35.45
2022-12-01T22:06:39.929Z,36.15
2022-12-01T22:09:42.101Z,37.47
2022-12-01T22:12:44.342Z,36.43
2022-12-01T22:15:46.653Z,39.95
2022-12-01T22:18:59.260Z,35.00
2022-12-01T22:22:20.266Z,39.05
2022-12-01T22:25:26.374Z,36.57
2022-12-01T22:28:28.850Z,32.33
2022-12-01T22:31:31.442Z,41.00
2022-12-01T22:34:34.198Z,33.78
2022-12-01T22:37:38.450Z,33.10
2022-12-01T22:40:55.014Z,30.67
2022-12-01T22:44:02.194Z,34.73
2022-12-01T22:47:04.567Z,38.05
2022-12-01T22:50:24.375Z,37.55
2022-12-01T22:53:29.172Z,36.72
2022-12-01T22:56:39.477Z,33.60
2022-12-01T22:59:42.798Z,31.77
2022-12-01T23:02:47.654Z,35.50
2022-12-01T23:05:53.652Z,34.25
2022-12-01T23:08:55.880Z,32.42
2022-12-01T23:12:13.571Z,32.33
2022-12-01T23:15:34.741Z,28.73
2022-12-01T23:18:36.966Z,29.00
2022-12-01T23:21:39.208Z,31.23
2022-12-01T23:24:41.457Z,33.58
2022-12-01T23:27:44.432Z,34.47
2022-12-01T23:30:47.897Z,33.17
2022-12-01T23:33:50.449Z,33.05
2022-12-01T23:36:53.036Z,33.13
2022-12-01T23:39:55.638Z,31.13
2022-12-01T23:43:23.809Z,33.53
2022-12-01T23:46:27.081Z,34.03
2022-12-01T23:49:31.393Z,36.47
2022-12-01T23:52:35.598Z,34.85
2022-12-01T23:55:37.850Z,30.83
2022-12-01T23:58:40.022Z,34.58
